sensor_id;sensor_type;location;lat;lon;timestamp;pressure;altitude;pressure_sealevel;temperature;humidity
64404;BME280;50726;54.912;-8.392;2023-02-12T00:01:13;102581.94;;;30.94;40.53
64404;BME280;50726;54.912;-8.392;2023-02-12T00:03:39;102578.66;;;32.55;37.14
64404;BME280;50726;54.912;-8.392;2023-02-12T00:06:09;102575.66;;;31.95;37.58
64404;BME280;50726;54.912;-8.392;2023-02-12T00:08:36;102573.69;;;31.07;38.51
64404;BME280;50726;54.912;-8.392;2023-02-12T00:16:15;102576.56;;;32.59;37.60
64404;BME280;50726;54.912;-8.392;2023-02-12T00:18:42;102574.75;;;32.70;36.52
64404;BME280;50726;54.912;-8.392;2023-02-12T00:21:08;102567.28;;;32.62;36.93
64404;BME280;50726;54.912;-8.392;2023-02-12T00:23:35;102568.16;;;33.25;36.64
64404;BME280;50726;54.912;-8.392;2023-02-12T00:26:23;102565.91;;;32.67;36.59
64404;BME280;50726;54.912;-8.392;2023-02-12T00:28:49;102565.84;;;31.82;37.44
64404;BME280;50726;54.912;-8.392;2023-02-12T00:31:27;102595.19;;;33.05;35.98
64404;BME280;50726;54.912;-8.392;2023-02-12T00:33:54;102581.16;;;33.31;36.96
64404;BME280;50726;54.912;-8.392;2023-02-12T00:36:23;102581.06;;;31.51;38.88
64404;BME280;50726;54.912;-8.392;2023-02-12T00:38:53;102581.78;;;31.53;37.61
64404;BME280;50726;54.912;-8.392;2023-02-12T00:41:20;102565.94;;;31.92;38.29
64404;BME280;50726;54.912;-8.392;2023-02-12T00:43:46;102573.34;;;31.00;38.75
64404;BME280;50726;54.912;-8.392;2023-02-12T00:46:11;102570.38;;;30.92;38.17
64404;BME280;50726;54.912;-8.392;2023-02-12T00:48:37;102567.66;;;30.92;39.04
64404;BME280;50726;54.912;-8.392;2023-02-12T00:51:04;102571.09;;;31.17;37.89
64404;BME280;50726;54.912;-8.392;2023-02-12T00:53:30;102566.44;;;32.92;36.65
64404;BME280;50726;54.912;-8.392;2023-02-12T00:55:56;102558.47;;;31.06;39.00
64404;BME280;50726;54.912;-8.392;2023-02-12T00:58:22;102560.03;;;30.74;38.71
64404;BME280;50726;54.912;-8.392;2023-02-12T01:00:47;102565.22;;;31.34;36.50
64404;BME280;50726;54.912;-8.392;2023-02-12T01:03:14;102556.13;;;30.78;38.06
64404;BME280;50726;54.912;-8.392;2023-02-12T01:05:39;102576.38;;;28.08;41.73
64404;BME280;50726;54.912;-8.392;2023-02-12T01:08:05;102568.56;;;26.30;42.28
64404;BME280;50726;54.912;-8.392;2023-02-12T01:10:31;102574.38;;;28.78;40.26
64404;BME280;50726;54.912;-8.392;2023-02-12T01:12:57;102565.69;;;29.51;39.38
64404;BME280;50726;54.912;-8.392;2023-02-12T01:15:23;102570.13;;;30.95;38.74
64404;BME280;50726;54.912;-8.392;2023-02-12T01:17:52;102569.75;;;31.11;39.06
64404;BME280;50726;54.912;-8.392;2023-02-12T01:20:21;102561.84;;;31.98;37.87
64404;BME280;50726;54.912;-8.392;2023-02-12T01:22:47;102556.69;;;30.59;37.50
64404;BME280;50726;54.912;-8.392;2023-02-12T01:25:13;102560.16;;;29.02;40.19
64404;BME280;50726;54.912;-8.392;2023-02-12T01:27:39;102559.00;;;30.41;38.54
64404;BME280;50726;54.912;-8.392;2023-02-12T01:30:07;102547.97;;;30.08;39.42
64404;BME280;50726;54.912;-8.392;2023-02-12T01:32:34;102545.03;;;30.47;39.11
64404;BME280;50726;54.912;-8.392;2023-02-12T01:35:01;102558.06;;;31.45;38.37
64404;BME280;50726;54.912;-8.392;2023-02-12T01:37:27;102556.47;;;30.62;38.88
64404;BME280;50726;54.912;-8.392;2023-02-12T01:39:52;102551.19;;;31.41;37.29
64404;BME280;50726;54.912;-8.392;2023-02-12T01:42:18;102548.38;;;30.15;39.31
64404;BME280;50726;54.912;-8.392;2023-02-12T01:47:42;102546.94;;;30.34;39.16
64404;BME280;50726;54.912;-8.392;2023-02-12T01:50:11;102544.06;;;31.17;37.87
64404;BME280;50726;54.912;-8.392;2023-02-12T01:52:39;102539.38;;;31.53;37.33
64404;BME280;50726;54.912;-8.392;2023-02-12T01:55:09;102539.03;;;31.91;37.56
64404;BME280;50726;54.912;-8.392;2023-02-12T01:57:39;102528.06;;;30.45;38.16
64404;BME280;50726;54.912;-8.392;2023-02-12T02:00:15;102527.97;;;31.82;36.71
64404;BME280;50726;54.912;-8.392;2023-02-12T02:02:46;102522.91;;;31.89;37.43
64404;BME280;50726;54.912;-8.392;2023-02-12T02:05:17;102524.31;;;31.72;37.62
64404;BME280;50726;54.912;-8.392;2023-02-12T02:07:47;102531.47;;;29.64;39.77
64404;BME280;50726;54.912;-8.392;2023-02-12T02:10:13;102527.50;;;29.81;38.94
64404;BME280;50726;54.912;-8.392;2023-02-12T02:12:39;102527.72;;;29.16;39.45
64404;BME280;50726;54.912;-8.392;2023-02-12T02:15:25;102524.84;;;27.73;42.96
64404;BME280;50726;54.912;-8.392;2023-02-12T02:18:01;102544.00;;;28.76;40.74
64404;BME280;50726;54.912;-8.392;2023-02-12T02:32:47;102546.94;;;31.71;37.33
64404;BME280;50726;54.912;-8.392;2023-02-12T02:35:40;102531.00;;;31.56;37.06
64404;BME280;50726;54.912;-8.392;2023-02-12T02:38:19;102545.69;;;30.26;37.99
64404;BME280;50726;54.912;-8.392;2023-02-12T02:43:28;102530.91;;;30.08;39.83
64404;BME280;50726;54.912;-8.392;2023-02-12T02:46:06;102540.44;;;29.52;39.59
64404;BME280;50726;54.912;-8.392;2023-02-12T02:48:36;102535.19;;;30.35;38.83
64404;BME280;50726;54.912;-8.392;2023-02-12T02:51:11;102534.31;;;32.35;36.93
64404;BME280;50726;54.912;-8.392;2023-02-12T02:53:44;102530.28;;;28.27;41.95
64404;BME280;50726;54.912;-8.392;2023-02-12T02:56:15;102522.41;;;30.25;38.76
64404;BME280;50726;54.912;-8.392;2023-02-12T02:58:50;102525.09;;;30.25;39.36
64404;BME280;50726;54.912;-8.392;2023-02-12T03:01:21;102527.63;;;31.20;38.32
64404;BME280;50726;54.912;-8.392;2023-02-12T03:04:01;102524.06;;;29.42;39.93
64404;BME280;50726;54.912;-8.392;2023-02-12T03:06:42;102522.09;;;29.19;40.63
64404;BME280;50726;54.912;-8.392;2023-02-12T03:09:20;102519.84;;;29.51;40.11
64404;BME280;50726;54.912;-8.392;2023-02-12T03:11:48;102520.25;;;29.20;39.52
64404;BME280;50726;54.912;-8.392;2023-02-12T03:14:29;102509.94;;;30.47;38.28
64404;BME280;50726;54.912;-8.392;2023-02-12T03:17:09;102514.03;;;30.28;38.96
64404;BME280;50726;54.912;-8.392;2023-02-12T03:19:52;102517.81;;;29.41;40.56
64404;BME280;50726;54.912;-8.392;2023-02-12T03:22:24;102505.97;;;28.80;41.25
64404;BME280;50726;54.912;-8.392;2023-02-12T03:24:56;102518.34;;;28.57;41.79
64404;BME280;50726;54.912;-8.392;2023-02-12T03:27:34;102518.34;;;29.09;40.57
64404;BME280;50726;54.912;-8.392;2023-02-12T03:30:02;102508.94;;;30.37;39.33
64404;BME280;50726;54.912;-8.392;2023-02-12T03:35:23;102525.91;;;27.71;43.93
64404;BME280;50726;54.912;-8.392;2023-02-12T03:37:57;102522.13;;;28.67;40.72
64404;BME280;50726;54.912;-8.392;2023-02-12T03:40:30;102513.41;;;30.72;39.54
64404;BME280;50726;54.912;-8.392;2023-02-12T03:45:39;102516.19;;;29.01;40.55
64404;BME280;50726;54.912;-8.392;2023-02-12T03:48:13;102517.91;;;28.37;41.47
64404;BME280;50726;54.912;-8.392;2023-02-12T03:53:19;102508.81;;;28.12;41.73
64404;BME280;50726;54.912;-8.392;2023-02-12T03:55:50;102496.16;;;29.67;41.26
64404;BME280;50726;54.912;-8.392;2023-02-12T03:58:20;102487.81;;;30.31;41.47
64404;BME280;50726;54.912;-8.392;2023-02-12T04:00:49;102503.41;;;27.86;42.37
64404;BME280;50726;54.912;-8.392;2023-02-12T04:03:15;102503.59;;;27.83;42.18
64404;BME280;50726;54.912;-8.392;2023-02-12T04:05:42;102477.00;;;28.84;42.12
64404;BME280;50726;54.912;-8.392;2023-02-12T04:08:08;102501.16;;;28.47;41.74
64404;BME280;50726;54.912;-8.392;2023-02-12T04:10:51;102499.41;;;29.35;41.75
64404;BME280;50726;54.912;-8.392;2023-02-12T04:16:53;102516.75;;;28.41;42.53
64404;BME280;50726;54.912;-8.392;2023-02-12T04:19:33;102494.31;;;29.43;41.26
64404;BME280;50726;54.912;-8.392;2023-02-12T04:22:17;102486.06;;;28.70;42.39
64404;BME280;50726;54.912;-8.392;2023-02-12T04:27:32;102514.94;;;27.74;43.79
64404;BME280;50726;54.912;-8.392;2023-02-12T04:30:29;102516.03;;;27.15;44.19
64404;BME280;50726;54.912;-8.392;2023-02-12T04:33:01;102512.53;;;28.37;43.17
64404;BME280;50726;54.912;-8.392;2023-02-12T04:38:10;102509.56;;;29.31;41.86
64404;BME280;50726;54.912;-8.392;2023-02-12T04:40:39;102497.59;;;28.59;42.40
64404;BME280;50726;54.912;-8.392;2023-02-12T04:43:05;102519.09;;;27.08;43.61
64404;BME280;50726;54.912;-8.392;2023-02-12T04:45:33;102509.53;;;27.61;43.77
64404;BME280;50726;54.912;-8.392;2023-02-12T04:48:00;102512.16;;;26.61;44.87
64404;BME280;50726;54.912;-8.392;2023-02-12T04:50:32;102508.47;;;27.64;44.17
64404;BME280;50726;54.912;-8.392;2023-02-12T04:53:01;102532.34;;;27.12;42.98
64404;BME280;50726;54.912;-8.392;2023-02-12T04:55:27;102524.66;;;27.20;45.59
64404;BME280;50726;54.912;-8.392;2023-02-12T04:57:53;102525.84;;;27.16;43.51
64404;BME280;50726;54.912;-8.392;2023-02-12T05:00:18;102533.78;;;28.14;42.28
64404;BME280;50726;54.912;-8.392;2023-02-12T05:02:44;102516.59;;;29.45;41.44
64404;BME280;50726;54.912;-8.392;2023-02-12T05:05:10;102513.94;;;27.90;42.84
64404;BME280;50726;54.912;-8.392;2023-02-12T05:07:36;102517.63;;;28.14;43.41
64404;BME280;50726;54.912;-8.392;2023-02-12T05:10:02;102492.84;;;28.76;42.44
64404;BME280;50726;54.912;-8.392;2023-02-12T05:12:28;102522.22;;;28.79;42.18
64404;BME280;50726;54.912;-8.392;2023-02-12T05:14:54;102500.03;;;29.01;42.63
64404;BME280;50726;54.912;-8.392;2023-02-12T05:17:22;102519.66;;;28.51;44.23
64404;BME280;50726;54.912;-8.392;2023-02-12T05:19:48;102527.09;;;28.07;43.02
64404;BME280;50726;54.912;-8.392;2023-02-12T05:22:13;102504.56;;;29.14;41.24
64404;BME280;50726;54.912;-8.392;2023-02-12T05:24:39;102499.09;;;30.24;41.86
64404;BME280;50726;54.912;-8.392;2023-02-12T05:27:05;102516.75;;;28.54;42.62
64404;BME280;50726;54.912;-8.392;2023-02-12T05:29:32;102497.03;;;30.04;41.38
64404;BME280;50726;54.912;-8.392;2023-02-12T05:31:58;102499.63;;;30.41;41.65
64404;BME280;50726;54.912;-8.392;2023-02-12T05:34:23;102495.16;;;29.06;40.86
64404;BME280;50726;54.912;-8.392;2023-02-12T05:36:49;102511.38;;;28.54;42.20
64404;BME280;50726;54.912;-8.392;2023-02-12T05:39:16;102488.84;;;28.94;41.04
64404;BME280;50726;54.912;-8.392;2023-02-12T05:41:41;102483.09;;;27.95;42.58
64404;BME280;50726;54.912;-8.392;2023-02-12T05:44:08;102486.75;;;30.90;39.41
64404;BME280;50726;54.912;-8.392;2023-02-12T05:46:37;102501.28;;;30.19;40.01
64404;BME280;50726;54.912;-8.392;2023-02-12T05:49:03;102499.97;;;29.65;40.87
64404;BME280;50726;54.912;-8.392;2023-02-12T05:51:29;102513.81;;;30.32;39.72
64404;BME280;50726;54.912;-8.392;2023-02-12T05:54:01;102493.09;;;30.66;39.75
64404;BME280;50726;54.912;-8.392;2023-02-12T05:56:36;102504.47;;;29.02;41.35
64404;BME280;50726;54.912;-8.392;2023-02-12T05:59:08;102505.19;;;30.97;39.57
64404;BME280;50726;54.912;-8.392;2023-02-12T06:01:39;102473.03;;;29.76;40.16
64404;BME280;50726;54.912;-8.392;2023-02-12T06:04:09;102486.69;;;28.74;42.74
64404;BME280;50726;54.912;-8.392;2023-02-12T06:06:36;102484.09;;;29.11;41.75
64404;BME280;50726;54.912;-8.392;2023-02-12T06:09:02;102485.72;;;29.01;41.08
64404;BME280;50726;54.912;-8.392;2023-02-12T06:11:29;102483.59;;;30.74;40.07
64404;BME280;50726;54.912;-8.392;2023-02-12T06:13:55;102491.22;;;28.86;40.91
64404;BME280;50726;54.912;-8.392;2023-02-12T06:16:26;102493.53;;;27.45;44.36
64404;BME280;50726;54.912;-8.392;2023-02-12T06:18:54;102479.22;;;29.16;41.33
64404;BME280;50726;54.912;-8.392;2023-02-12T06:21:22;102477.13;;;29.57;41.85
64404;BME280;50726;54.912;-8.392;2023-02-12T06:23:49;102471.03;;;29.42;40.19
64404;BME280;50726;54.912;-8.392;2023-02-12T06:26:16;102464.47;;;31.21;38.81
64404;BME280;50726;54.912;-8.392;2023-02-12T06:28:43;102467.25;;;29.69;40.76
64404;BME280;50726;54.912;-8.392;2023-02-12T06:31:36;102469.88;;;31.21;38.63
64404;BME280;50726;54.912;-8.392;2023-02-12T06:34:06;102473.06;;;31.38;38.64
64404;BME280;50726;54.912;-8.392;2023-02-12T06:36:35;102469.44;;;30.93;39.08
64404;BME280;50726;54.912;-8.392;2023-02-12T06:39:01;102467.78;;;31.36;39.10
64404;BME280;50726;54.912;-8.392;2023-02-12T06:41:28;102465.41;;;30.06;38.96
64404;BME280;50726;54.912;-8.392;2023-02-12T06:43:54;102452.88;;;28.18;40.91
64404;BME280;50726;54.912;-8.392;2023-02-12T06:46:20;102474.53;;;28.81;40.80
64404;BME280;50726;54.912;-8.392;2023-02-12T06:48:46;102458.03;;;28.21;42.11
64404;BME280;50726;54.912;-8.392;2023-02-12T06:51:15;102460.25;;;28.41;42.94
64404;BME280;50726;54.912;-8.392;2023-02-12T06:53:42;102454.78;;;27.90;43.04
64404;BME280;50726;54.912;-8.392;2023-02-12T06:56:11;102453.22;;;27.45;43.54
64404;BME280;50726;54.912;-8.392;2023-02-12T06:58:43;102465.94;;;27.56;43.53
64404;BME280;50726;54.912;-8.392;2023-02-12T07:01:14;102454.31;;;27.55;42.93
64404;BME280;50726;54.912;-8.392;2023-02-12T07:03:50;102464.97;;;27.84;41.56
64404;BME280;50726;54.912;-8.392;2023-02-12T07:06:17;102461.81;;;27.65;41.17
64404;BME280;50726;54.912;-8.392;2023-02-12T07:08:43;102455.88;;;28.00;42.21
64404;BME280;50726;54.912;-8.392;2023-02-12T07:11:09;102457.06;;;27.13;43.52
64404;BME280;50726;54.912;-8.392;2023-02-12T07:13:40;102457.22;;;27.80;43.49
64404;BME280;50726;54.912;-8.392;2023-02-12T07:16:08;102439.75;;;28.00;42.40
64404;BME280;50726;54.912;-8.392;2023-02-12T07:18:37;102452.75;;;28.06;41.58
64404;BME280;50726;54.912;-8.392;2023-02-12T07:21:04;102440.13;;;27.53;42.14
64404;BME280;50726;54.912;-8.392;2023-02-12T07:23:32;102454.09;;;28.52;41.94
64404;BME280;50726;54.912;-8.392;2023-02-12T07:26:00;102442.34;;;28.66;42.21
64404;BME280;50726;54.912;-8.392;2023-02-12T07:28:27;102433.47;;;28.77;41.40
64404;BME280;50726;54.912;-8.392;2023-02-12T07:30:56;102443.09;;;28.17;41.70
64404;BME280;50726;54.912;-8.392;2023-02-12T07:33:21;102445.56;;;28.20;42.93
64404;BME280;50726;54.912;-8.392;2023-02-12T07:35:47;102452.44;;;27.43;41.62
64404;BME280;50726;54.912;-8.392;2023-02-12T07:38:13;102436.66;;;26.67;43.06
64404;BME280;50726;54.912;-8.392;2023-02-12T07:40:39;102445.59;;;27.52;42.40
64404;BME280;50726;54.912;-8.392;2023-02-12T07:43:04;102439.50;;;27.07;42.95
64404;BME280;50726;54.912;-8.392;2023-02-12T07:45:30;102457.16;;;27.39;42.25
64404;BME280;50726;54.912;-8.392;2023-02-12T07:47:58;102447.38;;;27.11;43.51
64404;BME280;50726;54.912;-8.392;2023-02-12T07:50:24;102461.72;;;27.66;43.13
64404;BME280;50726;54.912;-8.392;2023-02-12T07:55:26;102438.69;;;27.34;42.50
64404;BME280;50726;54.912;-8.392;2023-02-12T07:57:52;102446.91;;;26.75;43.94
64404;BME280;50726;54.912;-8.392;2023-02-12T08:00:18;102449.44;;;27.20;43.47
64404;BME280;50726;54.912;-8.392;2023-02-12T08:02:50;102444.75;;;27.92;43.33
64404;BME280;50726;54.912;-8.392;2023-02-12T08:05:16;102440.34;;;27.78;42.49
64404;BME280;50726;54.912;-8.392;2023-02-12T08:07:46;102458.06;;;29.23;41.42
64404;BME280;50726;54.912;-8.392;2023-02-12T08:10:12;102468.78;;;29.36;41.51
64404;BME280;50726;54.912;-8.392;2023-02-12T08:12:40;102453.72;;;28.18;42.20
64404;BME280;50726;54.912;-8.392;2023-02-12T08:15:06;102445.22;;;27.30;43.48
64404;BME280;50726;54.912;-8.392;2023-02-12T08:17:33;102460.81;;;27.93;43.73
64404;BME280;50726;54.912;-8.392;2023-02-12T08:19:59;102441.00;;;27.26;43.93
64404;BME280;50726;54.912;-8.392;2023-02-12T08:22:24;102438.50;;;26.96;43.27
64404;BME280;50726;54.912;-8.392;2023-02-12T08:24:50;102445.66;;;26.80;44.23
64404;BME280;50726;54.912;-8.392;2023-02-12T08:27:16;102454.56;;;27.38;43.85
64404;BME280;50726;54.912;-8.392;2023-02-12T08:29:41;102483.06;;;28.23;42.15
64404;BME280;50726;54.912;-8.392;2023-02-12T08:32:07;102464.47;;;26.80;43.48
64404;BME280;50726;54.912;-8.392;2023-02-12T08:34:38;102482.41;;;27.92;42.68
64404;BME280;50726;54.912;-8.392;2023-02-12T08:37:04;102477.06;;;29.70;41.14
64404;BME280;50726;54.912;-8.392;2023-02-12T08:39:30;102465.38;;;28.71;41.80
64404;BME280;50726;54.912;-8.392;2023-02-12T08:41:58;102452.97;;;29.56;42.51
64404;BME280;50726;54.912;-8.392;2023-02-12T08:44:24;102478.88;;;29.21;43.38
64404;BME280;50726;54.912;-8.392;2023-02-12T08:46:51;102454.28;;;29.26;44.05
64404;BME280;50726;54.912;-8.392;2023-02-12T08:49:25;102457.03;;;29.37;42.00
64404;BME280;50726;54.912;-8.392;2023-02-12T08:51:53;102452.63;;;29.96;43.05
64404;BME280;50726;54.912;-8.392;2023-02-12T08:54:21;102454.16;;;28.12;45.69
64404;BME280;50726;54.912;-8.392;2023-02-12T08:56:48;102471.06;;;28.66;45.39
64404;BME280;50726;54.912;-8.392;2023-02-12T08:59:15;102452.34;;;30.24;44.28
64404;BME280;50726;54.912;-8.392;2023-02-12T09:01:42;102462.16;;;28.52;44.41
64404;BME280;50726;54.912;-8.392;2023-02-12T09:04:25;102470.75;;;28.19;46.66
64404;BME280;50726;54.912;-8.392;2023-02-12T09:06:51;102452.88;;;28.96;42.77
64404;BME280;50726;54.912;-8.392;2023-02-12T09:09:18;102442.38;;;28.40;45.23
64404;BME280;50726;54.912;-8.392;2023-02-12T09:11:44;102452.28;;;29.16;42.90
64404;BME280;50726;54.912;-8.392;2023-02-12T09:14:14;102460.13;;;30.86;39.57
64404;BME280;50726;54.912;-8.392;2023-02-12T09:16:40;102456.19;;;30.78;41.78
64404;BME280;50726;54.912;-8.392;2023-02-12T09:19:06;102461.84;;;31.42;39.57
64404;BME280;50726;54.912;-8.392;2023-02-12T09:21:32;102449.78;;;31.02;38.92
64404;BME280;50726;54.912;-8.392;2023-02-12T09:23:59;102452.94;;;31.63;38.20
64404;BME280;50726;54.912;-8.392;2023-02-12T09:26:25;102448.03;;;30.10;38.22
64404;BME280;50726;54.912;-8.392;2023-02-12T09:28:51;102476.53;;;30.37;38.96
64404;BME280;50726;54.912;-8.392;2023-02-12T09:31:26;102462.44;;;30.45;38.50
64404;BME280;50726;54.912;-8.392;2023-02-12T09:33:53;102444.13;;;29.05;40.48
64404;BME280;50726;54.912;-8.392;2023-02-12T09:36:20;102462.22;;;29.40;40.15
64404;BME280;50726;54.912;-8.392;2023-02-12T09:38:46;102456.44;;;30.52;38.68
64404;BME280;50726;54.912;-8.392;2023-02-12T09:49:17;102452.25;;;29.54;39.84
64404;BME280;50726;54.912;-8.392;2023-02-12T09:51:50;102444.66;;;29.95;39.75
64404;BME280;50726;54.912;-8.392;2023-02-12T09:54:22;102445.38;;;30.44;39.54
64404;BME280;50726;54.912;-8.392;2023-02-12T09:57:03;102456.63;;;30.15;39.83
64404;BME280;50726;54.912;-8.392;2023-02-12T09:59:38;102455.34;;;28.99;41.03
64404;BME280;50726;54.912;-8.392;2023-02-12T10:02:18;102443.94;;;28.82;41.53
64404;BME280;50726;54.912;-8.392;2023-02-12T10:04:48;102452.63;;;29.96;40.92
64404;BME280;50726;54.912;-8.392;2023-02-12T10:07:30;102450.38;;;29.30;41.31
64404;BME280;50726;54.912;-8.392;2023-02-12T10:13:42;102471.97;;;29.54;40.63
64404;BME280;50726;54.912;-8.392;2023-02-12T10:16:44;102473.22;;;28.74;41.48
64404;BME280;50726;54.912;-8.392;2023-02-12T10:22:21;102459.75;;;30.45;40.71
64404;BME280;50726;54.912;-8.392;2023-02-12T10:28:08;102443.38;;;31.03;38.59
64404;BME280;50726;54.912;-8.392;2023-02-12T10:31:03;102451.16;;;29.56;40.16
64404;BME280;50726;54.912;-8.392;2023-02-12T10:33:48;102480.34;;;30.46;40.04
64404;BME280;50726;54.912;-8.392;2023-02-12T10:36:45;102475.09;;;30.78;39.65
64404;BME280;50726;54.912;-8.392;2023-02-12T10:39:26;102459.22;;;31.08;39.68
64404;BME280;50726;54.912;-8.392;2023-02-12T10:41:55;102476.91;;;31.01;39.43
64404;BME280;50726;54.912;-8.392;2023-02-12T10:44:25;102452.59;;;31.01;39.36
64404;BME280;50726;54.912;-8.392;2023-02-12T10:46:54;102467.78;;;31.13;38.65
64404;BME280;50726;54.912;-8.392;2023-02-12T10:49:21;102449.66;;;30.47;38.38
64404;BME280;50726;54.912;-8.392;2023-02-12T10:52:47;102453.28;;;31.26;39.24
64404;BME280;50726;54.912;-8.392;2023-02-12T10:54:53;102452.63;;;30.89;39.90
64404;BME280;50726;54.912;-8.392;2023-02-12T10:57:26;102444.94;;;31.29;39.69
64404;BME280;50726;54.912;-8.392;2023-02-12T10:59:56;102444.34;;;31.91;39.42
64404;BME280;50726;54.912;-8.392;2023-02-12T11:02:34;102452.41;;;32.64;38.05
64404;BME280;50726;54.912;-8.392;2023-02-12T11:05:21;102448.81;;;32.01;38.02
64404;BME280;50726;54.912;-8.392;2023-02-12T11:07:55;102436.63;;;31.86;38.45
64404;BME280;50726;54.912;-8.392;2023-02-12T11:10:46;102447.72;;;33.17;36.75
64404;BME280;50726;54.912;-8.392;2023-02-12T11:27:23;102421.34;;;30.52;40.63
64404;BME280;50726;54.912;-8.392;2023-02-12T11:35:57;102423.38;;;31.06;42.84
64404;BME280;50726;54.912;-8.392;2023-02-12T11:38:32;102442.41;;;30.93;39.81
64404;BME280;50726;54.912;-8.392;2023-02-12T11:41:01;102444.47;;;31.12;39.70
64404;BME280;50726;54.912;-8.392;2023-02-12T11:43:29;102443.28;;;29.78;41.62
64404;BME280;50726;54.912;-8.392;2023-02-12T11:45:57;102447.09;;;28.50;43.68
64404;BME280;50726;54.912;-8.392;2023-02-12T11:48:30;102456.16;;;29.37;42.54
64404;BME280;50726;54.912;-8.392;2023-02-12T11:51:01;102464.03;;;30.36;41.88
64404;BME280;50726;54.912;-8.392;2023-02-12T11:53:41;102465.88;;;29.02;44.41
64404;BME280;50726;54.912;-8.392;2023-02-12T11:56:11;102462.06;;;29.42;46.42
64404;BME280;50726;54.912;-8.392;2023-02-12T11:58:41;102458.63;;;29.15;45.21
64404;BME280;50726;54.912;-8.392;2023-02-12T12:01:29;102460.75;;;28.99;46.21
64404;BME280;50726;54.912;-8.392;2023-02-12T12:04:07;102458.47;;;31.17;43.74
64404;BME280;50726;54.912;-8.392;2023-02-12T12:06:45;102455.19;;;30.34;45.49
64404;BME280;50726;54.912;-8.392;2023-02-12T12:12:16;102443.53;;;30.67;44.18
64404;BME280;50726;54.912;-8.392;2023-02-12T12:15:09;102444.19;;;29.41;47.88
64404;BME280;50726;54.912;-8.392;2023-02-12T12:21:38;102447.03;;;31.25;44.50
64404;BME280;50726;54.912;-8.392;2023-02-12T12:27:03;102444.91;;;30.73;43.28
64404;BME280;50726;54.912;-8.392;2023-02-12T12:29:52;102434.31;;;33.16;40.71
64404;BME280;50726;54.912;-8.392;2023-02-12T12:32:20;102436.50;;;32.81;41.22
64404;BME280;50726;54.912;-8.392;2023-02-12T12:34:48;102435.16;;;33.95;39.44
64404;BME280;50726;54.912;-8.392;2023-02-12T13:02:12;102433.72;;;33.12;38.98
64404;BME280;50726;54.912;-8.392;2023-02-12T13:05:05;102434.84;;;32.27;40.69
64404;BME280;50726;54.912;-8.392;2023-02-12T13:07:54;102434.53;;;31.13;41.38
64404;BME280;50726;54.912;-8.392;2023-02-12T13:11:05;102434.06;;;30.39;41.74
64404;BME280;50726;54.912;-8.392;2023-02-12T13:25:00;102403.69;;;30.71;40.57
64404;BME280;50726;54.912;-8.392;2023-02-12T13:26:57;102394.06;;;31.88;40.19
64404;BME280;50726;54.912;-8.392;2023-02-12T13:32:06;102391.25;;;32.31;41.56
64404;BME280;50726;54.912;-8.392;2023-02-12T13:34:41;102389.38;;;31.36;40.00
64404;BME280;50726;54.912;-8.392;2023-02-12T13:37:15;102390.50;;;31.33;40.53
64404;BME280;50726;54.912;-8.392;2023-02-12T13:39:44;102390.00;;;32.76;39.24
64404;BME280;50726;54.912;-8.392;2023-02-12T13:50:49;102379.34;;;30.60;40.95
64404;BME280;50726;54.912;-8.392;2023-02-12T13:53:41;102377.47;;;32.94;39.03
64404;BME280;50726;54.912;-8.392;2023-02-12T13:58:58;102371.22;;;32.94;38.03
64404;BME280;50726;54.912;-8.392;2023-02-12T14:07:09;102359.25;;;33.16;37.21
64404;BME280;50726;54.912;-8.392;2023-02-12T14:12:35;102359.69;;;33.61;37.29
64404;BME280;50726;54.912;-8.392;2023-02-12T14:15:09;102365.69;;;34.03;37.78
64404;BME280;50726;54.912;-8.392;2023-02-12T14:33:47;102360.06;;;32.67;37.74
64404;BME280;50726;54.912;-8.392;2023-02-12T14:37:08;102364.16;;;31.90;39.10
64404;BME280;50726;54.912;-8.392;2023-02-12T14:39:28;102343.47;;;32.51;40.58
64404;BME280;50726;54.912;-8.392;2023-02-12T14:47:10;102343.28;;;32.33;37.74
64404;BME280;50726;54.912;-8.392;2023-02-12T14:49:51;102337.41;;;32.88;37.13
64404;BME280;50726;54.912;-8.392;2023-02-12T14:52:22;102332.97;;;33.66;37.54
64404;BME280;50726;54.912;-8.392;2023-02-12T14:54:59;102335.31;;;33.02;35.84
64404;BME280;50726;54.912;-8.392;2023-02-12T14:57:36;102334.44;;;31.99;37.62
64404;BME280;50726;54.912;-8.392;2023-02-12T15:02:56;102331.28;;;33.35;35.45
64404;BME280;50726;54.912;-8.392;2023-02-12T15:05:28;102325.28;;;32.83;37.00
64404;BME280;50726;54.912;-8.392;2023-02-12T15:08:30;102319.00;;;32.62;36.99
64404;BME280;50726;54.912;-8.392;2023-02-12T15:11:02;102324.06;;;31.19;38.34
64404;BME280;50726;54.912;-8.392;2023-02-12T15:14:10;102320.63;;;31.50;37.85
64404;BME280;50726;54.912;-8.392;2023-02-12T15:17:21;102314.06;;;32.36;36.78
64404;BME280;50726;54.912;-8.392;2023-02-12T15:20:06;102314.31;;;33.53;35.19
64404;BME280;50726;54.912;-8.392;2023-02-12T15:22:41;102309.03;;;32.92;37.42
64404;BME280;50726;54.912;-8.392;2023-02-12T15:27:44;102318.00;;;31.06;38.65
64404;BME280;50726;54.912;-8.392;2023-02-12T15:30:19;102317.63;;;29.75;38.86
64404;BME280;50726;54.912;-8.392;2023-02-12T15:32:47;102322.56;;;30.50;40.19
64404;BME280;50726;54.912;-8.392;2023-02-12T15:35:24;102317.53;;;32.48;36.61
64404;BME280;50726;54.912;-8.392;2023-02-12T15:37:52;102318.03;;;29.93;38.98
64404;BME280;50726;54.912;-8.392;2023-02-12T15:40:20;102334.84;;;32.36;37.73
64404;BME280;50726;54.912;-8.392;2023-02-12T15:42:55;102319.59;;;33.15;36.86
64404;BME280;50726;54.912;-8.392;2023-02-12T15:45:25;102315.91;;;32.36;36.88
64404;BME280;50726;54.912;-8.392;2023-02-12T15:48:15;102316.06;;;33.82;37.82
64404;BME280;50726;54.912;-8.392;2023-02-12T15:53:38;102303.28;;;31.31;38.88
64404;BME280;50726;54.912;-8.392;2023-02-12T15:56:04;102322.91;;;31.33;37.29
64404;BME280;50726;54.912;-8.392;2023-02-12T15:58:51;102320.75;;;33.90;35.68
64404;BME280;50726;54.912;-8.392;2023-02-12T16:01:28;102315.72;;;34.05;34.98